createdAt,value
2019-05-16T18:31:42.298Z,101396.06
2019-05-16T18:34:16.881Z,101399.45
2019-05-16T18:36:50.906Z,101395.25
2019-05-16T18:39:20.691Z,101391.06
2019-05-16T18:42:03.474Z,101397.61
2019-05-16T18:44:33.381Z,101395.80
2019-05-16T18:47:13.173Z,101392.34
2019-05-16T18:49:47.150Z,101393.05
2019-05-16T18:52:18.994Z,101399.02
2019-05-16T18:54:50.701Z,101389.73
2019-05-16T18:57:26.826Z,101389.84
2019-05-16T19:00:07.020Z,101392.27
2019-05-16T19:02:36.848Z,101390.77
2019-05-16T19:05:12.696Z,101393.87
2019-05-16T19:07:42.608Z,101384.86
2019-05-16T19:10:17.640Z,101388.84
2019-05-16T19:12:53.053Z,101389.78
2019-05-16T19:15:26.707Z,101392.53
2019-05-16T19:17:58.677Z,101389.30
2019-05-16T19:20:28.321Z,101390.44
2019-05-16T19:23:02.543Z,101389.44
2019-05-16T19:25:36.400Z,101390.88
2019-05-16T19:28:18.307Z,101398.61
2019-05-16T19:30:48.119Z,101390.16
2019-05-16T19:33:18.007Z,101395.99
2019-05-16T19:35:48.996Z,101396.09
2019-05-16T19:38:20.119Z,101394.78
2019-05-16T19:40:51.830Z,101392.95
2019-05-16T19:43:28.409Z,101393.35
2019-05-16T19:46:02.105Z,101396.47
2019-05-16T19:48:33.206Z,101395.73
2019-05-16T19:51:07.439Z,101398.05
2019-05-16T19:53:36.637Z,101390.78
2019-05-16T19:56:10.686Z,101389.80
2019-05-16T19:58:46.643Z,101396.31
2019-05-16T20:01:16.954Z,101402.31
2019-05-16T20:03:58.300Z,101398.20
2019-05-16T20:06:31.466Z,101405.00
2019-05-16T20:09:08.935Z,101399.40
2019-05-16T20:11:46.324Z,101400.13
2019-05-16T20:14:39.897Z,101405.71
2019-05-16T20:17:19.286Z,101412.03
2019-05-16T20:19:48.530Z,101406.61
2019-05-16T20:22:22.369Z,101408.05
2019-05-16T20:25:01.984Z,101405.61
2019-05-16T20:27:43.727Z,101410.71
2019-05-16T20:30:27.540Z,101417.15
2019-05-16T20:32:57.238Z,101410.97
2019-05-16T20:35:37.437Z,101409.98
2019-05-16T20:38:07.042Z,101412.54
2019-05-16T20:40:39.091Z,101408.23
2019-05-16T20:43:16.882Z,101403.30
2019-05-16T20:45:49.454Z,101410.48
2019-05-16T20:48:33.233Z,101415.20
2019-05-16T20:51:07.482Z,101413.88
2019-05-16T20:53:38.854Z,101422.95
2019-05-16T20:56:10.951Z,101405.75
2019-05-16T20:58:41.370Z,101406.32
2019-05-16T21:01:11.668Z,101404.13
2019-05-16T21:03:43.596Z,101409.59
2019-05-16T21:06:19.384Z,101402.54
2019-05-16T21:08:57.623Z,101407.53
2019-05-16T21:11:31.640Z,101399.09
2019-05-16T21:14:01.279Z,101402.40
2019-05-16T21:16:32.556Z,101401.84
2019-05-16T21:19:03.064Z,101406.26
2019-05-16T21:21:33.283Z,101405.17
2019-05-16T21:24:17.734Z,101397.52
2019-05-16T21:26:49.641Z,101395.06
2019-05-16T21:29:19.503Z,101397.27
2019-05-16T21:31:48.861Z,101403.58
2019-05-16T21:34:19.141Z,101404.97
2019-05-16T21:36:49.641Z,101401.39
2019-05-16T21:39:19.283Z,101395.91
2019-05-16T21:41:50.691Z,101386.34
2019-05-16T21:44:20.484Z,101391.83
2019-05-16T21:46:56.382Z,101391.87
2019-05-16T21:49:27.639Z,101386.97
2019-05-16T21:51:57.407Z,101385.34
2019-05-16T21:54:28.782Z,101382.09
2019-05-16T21:56:58.391Z,101381.52
2019-05-16T21:59:28.816Z,101389.44
2019-05-16T22:01:59.209Z,101377.70
2019-05-16T22:04:29.008Z,101379.63
2019-05-16T22:06:59.455Z,101376.88
2019-05-16T22:09:31.371Z,101378.53
2019-05-16T22:12:01.285Z,101377.15
2019-05-16T22:14:36.751Z,101374.14
2019-05-16T22:17:06.437Z,101372.77
2019-05-16T22:19:36.192Z,101376.05
2019-05-16T22:22:07.250Z,101380.13
2019-05-16T22:24:41.924Z,101380.97
2019-05-16T22:27:12.976Z,101364.86
2019-05-16T22:29:45.999Z,101365.12
2019-05-16T22:32:16.440Z,101361.55
2019-05-16T22:34:47.633Z,101359.89
2019-05-16T22:37:17.179Z,101357.99
2019-05-16T22:39:49.335Z,101363.13
2019-05-16T22:42:20.228Z,101359.61
2019-05-16T22:44:51.344Z,101355.23
2019-05-16T22:47:22.352Z,101345.97
2019-05-16T22:49:56.667Z,101347.56
2019-05-16T22:52:26.454Z,101351.39
2019-05-16T22:54:54.134Z,101348.38
2019-05-16T22:57:23.741Z,101342.41
2019-05-16T22:59:59.631Z,101342.14
2019-05-16T23:02:29.352Z,101346.48
2019-05-16T23:05:02.338Z,101350.03
2019-05-16T23:07:31.775Z,101341.55
2019-05-16T23:10:07.218Z,101346.41
2019-05-16T23:12:38.028Z,101345.02
2019-05-16T23:15:09.816Z,101347.21
2019-05-16T23:17:39.343Z,101347.19
2019-05-16T23:20:09.674Z,101347.72
2019-05-16T23:22:39.293Z,101346.09
2019-05-16T23:25:14.201Z,101339.56
2019-05-16T23:27:47.210Z,101335.81
2019-05-16T23:30:16.359Z,101326.29
2019-05-16T23:32:46.992Z,101318.67
2019-05-16T23:35:15.932Z,101317.33
2019-05-16T23:37:46.482Z,101310.81
2019-05-16T23:40:16.179Z,101310.56
2019-05-16T23:42:46.493Z,101306.74
2019-05-16T23:45:17.052Z,101303.20
2019-05-16T23:47:46.907Z,101296.38
2019-05-16T23:50:13.903Z,101294.20
2019-05-16T23:52:42.852Z,101291.46
2019-05-16T23:55:13.837Z,101290.94
2019-05-16T23:57:42.730Z,101290.09
